sensor_id;sensor_type;location;lat;lon;timestamp;P1;durP1;ratioP1;P2;durP2;ratioP2
5742;SDS011;2896;53.500;10.020;2022-12-18T00:02:07;46.40;;;23.45;;
5742;SDS011;2896;53.500;10.020;2022-12-18T00:04:37;39.75;;;20.58;;
5742;SDS011;2896;53.500;10.020;2022-12-18T00:07:05;40.88;;;20.10;;
5742;SDS011;2896;53.500;10.020;2022-12-18T00:09:31;45.38;;;22.70;;
5742;SDS011;2896;53.500;10.020;2022-12-18T00:11:58;42.50;;;22.38;;
5742;SDS011;2896;53.500;10.020;2022-12-18T00:14:24;43.63;;;21.88;;
5742;SDS011;2896;53.500;10.020;2022-12-18T00:16:51;40.50;;;21.77;;
5742;SDS011;2896;53.500;10.020;2022-12-18T00:19:18;44.97;;;22.35;;
5742;SDS011;2896;53.500;10.020;2022-12-18T00:21:44;41.05;;;21.10;;
5742;SDS011;2896;53.500;10.020;2022-12-18T00:24:12;39.38;;;20.85;;
5742;SDS011;2896;53.500;10.020;2022-12-18T00:26:39;41.70;;;21.02;;
5742;SDS011;2896;53.500;10.020;2022-12-18T00:29:07;51.10;;;22.63;;
5742;SDS011;2896;53.500;10.020;2022-12-18T00:31:38;43.10;;;21.02;;
5742;SDS011;2896;53.500;10.020;2022-12-18T00:34:05;45.38;;;21.80;;
5742;SDS011;2896;53.500;10.020;2022-12-18T00:36:33;42.35;;;20.83;;
5742;SDS011;2896;53.500;10.020;2022-12-18T00:39:01;38.88;;;20.15;;
5742;SDS011;2896;53.500;10.020;2022-12-18T00:41:32;41.25;;;20.42;;
5742;SDS011;2896;53.500;10.020;2022-12-18T00:44:17;37.75;;;19.33;;
5742;SDS011;2896;53.500;10.020;2022-12-18T00:46:47;48.45;;;20.08;;
5742;SDS011;2896;53.500;10.020;2022-12-18T00:49:14;43.42;;;20.98;;
5742;SDS011;2896;53.500;10.020;2022-12-18T00:51:41;48.63;;;21.73;;
5742;SDS011;2896;53.500;10.020;2022-12-18T00:54:09;46.65;;;20.38;;
5742;SDS011;2896;53.500;10.020;2022-12-18T00:56:38;42.05;;;21.10;;
5742;SDS011;2896;53.500;10.020;2022-12-18T00:59:05;46.38;;;22.42;;
5742;SDS011;2896;53.500;10.020;2022-12-18T01:01:31;38.80;;;19.95;;
5742;SDS011;2896;53.500;10.020;2022-12-18T01:03:59;46.65;;;21.25;;
5742;SDS011;2896;53.500;10.020;2022-12-18T01:06:27;30.17;;;18.33;;
5742;SDS011;2896;53.500;10.020;2022-12-18T01:08:54;48.67;;;20.75;;
5742;SDS011;2896;53.500;10.020;2022-12-18T01:11:21;37.75;;;20.38;;
5742;SDS011;2896;53.500;10.020;2022-12-18T01:13:49;38.33;;;19.42;;
5742;SDS011;2896;53.500;10.020;2022-12-18T01:16:18;35.92;;;18.27;;
5742;SDS011;2896;53.500;10.020;2022-12-18T01:18:44;38.30;;;20.65;;
5742;SDS011;2896;53.500;10.020;2022-12-18T01:21:12;37.25;;;18.73;;
5742;SDS011;2896;53.500;10.020;2022-12-18T01:23:40;46.75;;;22.70;;
5742;SDS011;2896;53.500;10.020;2022-12-18T01:26:10;38.88;;;20.42;;
5742;SDS011;2896;53.500;10.020;2022-12-18T01:28:39;43.60;;;22.48;;
5742;SDS011;2896;53.500;10.020;2022-12-18T01:31:14;39.70;;;21.67;;
5742;SDS011;2896;53.500;10.020;2022-12-18T01:33:43;40.80;;;19.85;;
5742;SDS011;2896;53.500;10.020;2022-12-18T01:36:14;38.92;;;19.33;;
5742;SDS011;2896;53.500;10.020;2022-12-18T01:38:42;39.22;;;20.67;;
5742;SDS011;2896;53.500;10.020;2022-12-18T01:41:09;41.10;;;20.40;;
5742;SDS011;2896;53.500;10.020;2022-12-18T01:43:49;42.70;;;20.33;;
5742;SDS011;2896;53.500;10.020;2022-12-18T01:46:20;35.83;;;19.50;;
5742;SDS011;2896;53.500;10.020;2022-12-18T01:48:52;37.80;;;19.92;;
5742;SDS011;2896;53.500;10.020;2022-12-18T01:51:21;40.88;;;20.98;;
5742;SDS011;2896;53.500;10.020;2022-12-18T01:53:48;47.17;;;20.80;;
5742;SDS011;2896;53.500;10.020;2022-12-18T01:56:16;43.53;;;21.85;;
5742;SDS011;2896;53.500;10.020;2022-12-18T01:58:47;41.60;;;20.50;;
5742;SDS011;2896;53.500;10.020;2022-12-18T02:01:21;43.75;;;20.48;;
5742;SDS011;2896;53.500;10.020;2022-12-18T02:03:48;40.70;;;19.80;;
5742;SDS011;2896;53.500;10.020;2022-12-18T02:06:16;40.25;;;20.17;;
5742;SDS011;2896;53.500;10.020;2022-12-18T02:08:49;48.38;;;21.58;;
5742;SDS011;2896;53.500;10.020;2022-12-18T02:11:28;33.28;;;17.02;;
5742;SDS011;2896;53.500;10.020;2022-12-18T02:14:04;41.10;;;21.00;;
5742;SDS011;2896;53.500;10.020;2022-12-18T02:16:43;33.25;;;18.60;;
5742;SDS011;2896;53.500;10.020;2022-12-18T02:19:16;38.00;;;18.83;;
5742;SDS011;2896;53.500;10.020;2022-12-18T02:22:00;33.88;;;19.00;;
5742;SDS011;2896;53.500;10.020;2022-12-18T02:24:38;39.90;;;19.58;;
5742;SDS011;2896;53.500;10.020;2022-12-18T02:27:13;31.13;;;17.42;;
5742;SDS011;2896;53.500;10.020;2022-12-18T02:29:42;33.70;;;18.65;;
5742;SDS011;2896;53.500;10.020;2022-12-18T02:32:14;34.70;;;19.08;;
5742;SDS011;2896;53.500;10.020;2022-12-18T02:34:44;34.58;;;18.50;;
5742;SDS011;2896;53.500;10.020;2022-12-18T02:37:12;34.40;;;16.85;;
5742;SDS011;2896;53.500;10.020;2022-12-18T02:39:43;40.10;;;19.65;;
5742;SDS011;2896;53.500;10.020;2022-12-18T02:42:13;28.20;;;16.83;;
5742;SDS011;2896;53.500;10.020;2022-12-18T02:44:42;38.13;;;18.77;;
5742;SDS011;2896;53.500;10.020;2022-12-18T02:47:10;35.08;;;18.33;;
5742;SDS011;2896;53.500;10.020;2022-12-18T02:49:40;37.70;;;16.95;;
5742;SDS011;2896;53.500;10.020;2022-12-18T02:52:16;37.65;;;18.40;;
5742;SDS011;2896;53.500;10.020;2022-12-18T02:54:52;33.28;;;17.15;;
5742;SDS011;2896;53.500;10.020;2022-12-18T02:57:29;29.55;;;16.73;;
5742;SDS011;2896;53.500;10.020;2022-12-18T03:00:02;36.53;;;18.42;;
5742;SDS011;2896;53.500;10.020;2022-12-18T03:02:33;34.15;;;17.00;;
5742;SDS011;2896;53.500;10.020;2022-12-18T03:05:05;29.33;;;15.98;;
5742;SDS011;2896;53.500;10.020;2022-12-18T03:07:38;35.70;;;18.63;;
5742;SDS011;2896;53.500;10.020;2022-12-18T03:10:09;35.30;;;16.17;;
5742;SDS011;2896;53.500;10.020;2022-12-18T03:12:42;30.55;;;17.85;;
5742;SDS011;2896;53.500;10.020;2022-12-18T03:15:14;28.65;;;16.38;;
5742;SDS011;2896;53.500;10.020;2022-12-18T03:17:46;31.65;;;15.85;;
5742;SDS011;2896;53.500;10.020;2022-12-18T03:20:19;39.97;;;18.35;;
5742;SDS011;2896;53.500;10.020;2022-12-18T03:22:48;34.78;;;17.00;;
5742;SDS011;2896;53.500;10.020;2022-12-18T03:25:20;37.55;;;16.05;;
5742;SDS011;2896;53.500;10.020;2022-12-18T03:27:51;31.20;;;16.02;;
5742;SDS011;2896;53.500;10.020;2022-12-18T03:30:21;25.45;;;16.30;;
5742;SDS011;2896;53.500;10.020;2022-12-18T03:32:48;28.15;;;15.65;;
5742;SDS011;2896;53.500;10.020;2022-12-18T03:35:21;29.30;;;14.80;;
5742;SDS011;2896;53.500;10.020;2022-12-18T03:37:52;27.23;;;14.88;;
5742;SDS011;2896;53.500;10.020;2022-12-18T03:40:19;35.90;;;14.75;;
5742;SDS011;2896;53.500;10.020;2022-12-18T03:42:48;26.58;;;14.95;;
5742;SDS011;2896;53.500;10.020;2022-12-18T03:45:20;28.92;;;15.65;;
5742;SDS011;2896;53.500;10.020;2022-12-18T03:47:57;29.20;;;16.88;;
5742;SDS011;2896;53.500;10.020;2022-12-18T03:50:29;35.65;;;16.13;;
5742;SDS011;2896;53.500;10.020;2022-12-18T03:53:05;30.33;;;15.07;;
5742;SDS011;2896;53.500;10.020;2022-12-18T03:55:41;34.85;;;16.55;;
5742;SDS011;2896;53.500;10.020;2022-12-18T03:58:11;27.17;;;14.52;;
5742;SDS011;2896;53.500;10.020;2022-12-18T04:00:42;31.45;;;15.27;;
5742;SDS011;2896;53.500;10.020;2022-12-18T04:03:09;25.20;;;14.50;;
5742;SDS011;2896;53.500;10.020;2022-12-18T04:05:38;28.13;;;15.95;;
5742;SDS011;2896;53.500;10.020;2022-12-18T04:08:06;33.95;;;16.88;;
5742;SDS011;2896;53.500;10.020;2022-12-18T04:10:33;33.90;;;15.93;;
5742;SDS011;2896;53.500;10.020;2022-12-18T04:13:03;28.45;;;14.80;;
5742;SDS011;2896;53.500;10.020;2022-12-18T04:15:31;35.67;;;16.25;;
5742;SDS011;2896;53.500;10.020;2022-12-18T04:18:00;27.55;;;15.75;;
5742;SDS011;2896;53.500;10.020;2022-12-18T04:20:27;29.58;;;14.57;;
5742;SDS011;2896;53.500;10.020;2022-12-18T04:22:55;31.10;;;13.60;;
5742;SDS011;2896;53.500;10.020;2022-12-18T04:25:21;28.17;;;14.02;;
5742;SDS011;2896;53.500;10.020;2022-12-18T04:27:48;30.10;;;14.98;;
5742;SDS011;2896;53.500;10.020;2022-12-18T04:30:14;24.33;;;14.45;;
5742;SDS011;2896;53.500;10.020;2022-12-18T04:32:42;21.45;;;13.60;;
5742;SDS011;2896;53.500;10.020;2022-12-18T04:35:09;30.90;;;15.25;;
5742;SDS011;2896;53.500;10.020;2022-12-18T04:37:37;33.95;;;15.98;;
5742;SDS011;2896;53.500;10.020;2022-12-18T04:40:04;30.77;;;15.35;;
5742;SDS011;2896;53.500;10.020;2022-12-18T04:42:31;24.80;;;14.70;;
5742;SDS011;2896;53.500;10.020;2022-12-18T04:44:58;30.88;;;17.00;;
5742;SDS011;2896;53.500;10.020;2022-12-18T04:47:24;21.80;;;14.32;;
5742;SDS011;2896;53.500;10.020;2022-12-18T04:49:52;33.08;;;15.27;;
5742;SDS011;2896;53.500;10.020;2022-12-18T04:52:19;27.35;;;14.68;;
5742;SDS011;2896;53.500;10.020;2022-12-18T04:54:45;27.00;;;13.93;;
5742;SDS011;2896;53.500;10.020;2022-12-18T04:57:12;28.00;;;14.77;;
5742;SDS011;2896;53.500;10.020;2022-12-18T04:59:39;19.30;;;12.90;;
5742;SDS011;2896;53.500;10.020;2022-12-18T05:02:05;35.60;;;14.63;;
5742;SDS011;2896;53.500;10.020;2022-12-18T05:04:32;29.20;;;13.80;;
5742;SDS011;2896;53.500;10.020;2022-12-18T05:07:00;22.20;;;13.95;;
5742;SDS011;2896;53.500;10.020;2022-12-18T05:09:27;25.90;;;14.30;;
5742;SDS011;2896;53.500;10.020;2022-12-18T05:11:53;24.92;;;12.73;;
5742;SDS011;2896;53.500;10.020;2022-12-18T05:14:20;29.85;;;14.95;;
5742;SDS011;2896;53.500;10.020;2022-12-18T05:16:47;35.45;;;15.00;;
5742;SDS011;2896;53.500;10.020;2022-12-18T05:19:13;41.15;;;15.68;;
5742;SDS011;2896;53.500;10.020;2022-12-18T05:21:40;28.10;;;15.02;;
5742;SDS011;2896;53.500;10.020;2022-12-18T05:24:08;19.52;;;13.65;;
5742;SDS011;2896;53.500;10.020;2022-12-18T05:26:34;24.20;;;13.18;;
5742;SDS011;2896;53.500;10.020;2022-12-18T05:29:01;26.00;;;13.35;;
5742;SDS011;2896;53.500;10.020;2022-12-18T05:31:28;24.52;;;15.10;;
5742;SDS011;2896;53.500;10.020;2022-12-18T05:33:55;25.27;;;13.73;;
5742;SDS011;2896;53.500;10.020;2022-12-18T05:36:21;24.25;;;14.13;;
5742;SDS011;2896;53.500;10.020;2022-12-18T05:38:48;26.90;;;14.25;;
5742;SDS011;2896;53.500;10.020;2022-12-18T05:41:16;24.77;;;12.85;;
5742;SDS011;2896;53.500;10.020;2022-12-18T05:43:43;30.70;;;13.15;;
5742;SDS011;2896;53.500;10.020;2022-12-18T05:46:11;19.85;;;12.65;;
5742;SDS011;2896;53.500;10.020;2022-12-18T05:48:39;25.58;;;13.82;;
5742;SDS011;2896;53.500;10.020;2022-12-18T05:51:06;27.45;;;14.77;;
5742;SDS011;2896;53.500;10.020;2022-12-18T05:53:34;33.13;;;13.98;;
5742;SDS011;2896;53.500;10.020;2022-12-18T05:56:02;25.65;;;14.80;;
5742;SDS011;2896;53.500;10.020;2022-12-18T05:58:31;25.25;;;13.88;;
5742;SDS011;2896;53.500;10.020;2022-12-18T06:01:05;24.42;;;14.27;;
5742;SDS011;2896;53.500;10.020;2022-12-18T06:03:33;26.20;;;15.57;;
5742;SDS011;2896;53.500;10.020;2022-12-18T06:06:00;20.40;;;13.15;;
5742;SDS011;2896;53.500;10.020;2022-12-18T06:08:27;28.27;;;14.02;;
5742;SDS011;2896;53.500;10.020;2022-12-18T06:10:54;21.52;;;12.90;;
5742;SDS011;2896;53.500;10.020;2022-12-18T06:13:20;26.42;;;12.93;;
5742;SDS011;2896;53.500;10.020;2022-12-18T06:15:49;25.83;;;12.20;;
5742;SDS011;2896;53.500;10.020;2022-12-18T06:18:16;21.35;;;12.30;;
5742;SDS011;2896;53.500;10.020;2022-12-18T06:20:43;28.15;;;14.15;;
5742;SDS011;2896;53.500;10.020;2022-12-18T06:23:09;22.05;;;13.73;;
5742;SDS011;2896;53.500;10.020;2022-12-18T06:25:37;28.80;;;15.32;;
5742;SDS011;2896;53.500;10.020;2022-12-18T06:28:04;28.05;;;14.15;;
5742;SDS011;2896;53.500;10.020;2022-12-18T06:30:31;27.38;;;14.57;;
5742;SDS011;2896;53.500;10.020;2022-12-18T06:32:59;26.63;;;14.10;;
5742;SDS011;2896;53.500;10.020;2022-12-18T06:35:26;30.05;;;14.95;;
5742;SDS011;2896;53.500;10.020;2022-12-18T06:37:52;31.48;;;14.68;;
5742;SDS011;2896;53.500;10.020;2022-12-18T06:40:19;26.20;;;13.35;;
5742;SDS011;2896;53.500;10.020;2022-12-18T06:42:46;21.20;;;13.75;;
5742;SDS011;2896;53.500;10.020;2022-12-18T06:45:12;28.92;;;15.10;;
5742;SDS011;2896;53.500;10.020;2022-12-18T06:47:42;27.33;;;14.85;;
5742;SDS011;2896;53.500;10.020;2022-12-18T06:50:10;22.40;;;13.70;;
5742;SDS011;2896;53.500;10.020;2022-12-18T06:52:38;24.63;;;13.55;;
5742;SDS011;2896;53.500;10.020;2022-12-18T06:55:05;28.42;;;14.07;;
5742;SDS011;2896;53.500;10.020;2022-12-18T06:57:35;25.65;;;15.02;;
5742;SDS011;2896;53.500;10.020;2022-12-18T07:00:03;33.70;;;15.27;;
5742;SDS011;2896;53.500;10.020;2022-12-18T07:02:31;29.67;;;14.60;;
5742;SDS011;2896;53.500;10.020;2022-12-18T07:04:59;26.95;;;14.70;;
5742;SDS011;2896;53.500;10.020;2022-12-18T07:07:27;25.13;;;14.70;;
5742;SDS011;2896;53.500;10.020;2022-12-18T07:09:54;25.58;;;13.68;;
5742;SDS011;2896;53.500;10.020;2022-12-18T07:12:21;24.83;;;14.25;;
5742;SDS011;2896;53.500;10.020;2022-12-18T07:14:47;28.85;;;15.25;;
5742;SDS011;2896;53.500;10.020;2022-12-18T07:17:14;25.48;;;13.48;;
5742;SDS011;2896;53.500;10.020;2022-12-18T07:19:41;29.17;;;14.30;;
5742;SDS011;2896;53.500;10.020;2022-12-18T07:22:07;36.45;;;14.10;;
5742;SDS011;2896;53.500;10.020;2022-12-18T07:24:35;21.83;;;13.98;;
5742;SDS011;2896;53.500;10.020;2022-12-18T07:27:02;24.42;;;13.55;;
5742;SDS011;2896;53.500;10.020;2022-12-18T07:29:29;23.33;;;13.68;;
5742;SDS011;2896;53.500;10.020;2022-12-18T07:31:55;27.83;;;14.90;;
5742;SDS011;2896;53.500;10.020;2022-12-18T07:34:22;30.70;;;14.40;;
5742;SDS011;2896;53.500;10.020;2022-12-18T07:36:49;29.15;;;15.50;;
5742;SDS011;2896;53.500;10.020;2022-12-18T07:39:15;29.55;;;15.98;;
5742;SDS011;2896;53.500;10.020;2022-12-18T07:41:43;29.10;;;15.13;;
5742;SDS011;2896;53.500;10.020;2022-12-18T07:44:30;22.08;;;14.13;;
5742;SDS011;2896;53.500;10.020;2022-12-18T07:46:57;27.23;;;14.63;;
5742;SDS011;2896;53.500;10.020;2022-12-18T07:49:23;30.17;;;15.10;;
5742;SDS011;2896;53.500;10.020;2022-12-18T07:51:50;23.92;;;13.73;;
5742;SDS011;2896;53.500;10.020;2022-12-18T07:54:17;26.25;;;14.80;;
5742;SDS011;2896;53.500;10.020;2022-12-18T07:56:45;28.75;;;16.05;;
5742;SDS011;2896;53.500;10.020;2022-12-18T07:59:12;25.23;;;14.45;;
5742;SDS011;2896;53.500;10.020;2022-12-18T08:01:38;32.10;;;15.68;;
5742;SDS011;2896;53.500;10.020;2022-12-18T08:04:05;31.63;;;16.90;;
5742;SDS011;2896;53.500;10.020;2022-12-18T08:06:32;28.00;;;16.85;;
5742;SDS011;2896;53.500;10.020;2022-12-18T08:08:58;29.63;;;16.63;;
5742;SDS011;2896;53.500;10.020;2022-12-18T08:11:26;29.08;;;15.38;;
5742;SDS011;2896;53.500;10.020;2022-12-18T08:13:55;39.00;;;18.80;;
5742;SDS011;2896;53.500;10.020;2022-12-18T08:16:23;39.63;;;18.38;;
5742;SDS011;2896;53.500;10.020;2022-12-18T08:18:51;39.53;;;20.08;;
5742;SDS011;2896;53.500;10.020;2022-12-18T08:21:18;38.00;;;19.48;;
5742;SDS011;2896;53.500;10.020;2022-12-18T08:23:47;41.42;;;19.45;;
5742;SDS011;2896;53.500;10.020;2022-12-18T08:26:14;36.80;;;19.77;;
5742;SDS011;2896;53.500;10.020;2022-12-18T08:28:42;36.80;;;20.30;;
5742;SDS011;2896;53.500;10.020;2022-12-18T08:31:10;38.35;;;20.45;;
5742;SDS011;2896;53.500;10.020;2022-12-18T08:33:38;40.20;;;20.63;;
5742;SDS011;2896;53.500;10.020;2022-12-18T08:36:06;37.33;;;19.55;;
5742;SDS011;2896;53.500;10.020;2022-12-18T08:38:34;43.88;;;24.45;;
5742;SDS011;2896;53.500;10.020;2022-12-18T08:41:01;45.03;;;23.58;;
5742;SDS011;2896;53.500;10.020;2022-12-18T08:43:29;42.80;;;19.83;;
5742;SDS011;2896;53.500;10.020;2022-12-18T08:46:14;38.83;;;20.25;;
5742;SDS011;2896;53.500;10.020;2022-12-18T08:48:41;40.30;;;22.50;;
5742;SDS011;2896;53.500;10.020;2022-12-18T08:51:08;121.13;;;47.55;;
5742;SDS011;2896;53.500;10.020;2022-12-18T08:53:35;73.53;;;29.73;;
5742;SDS011;2896;53.500;10.020;2022-12-18T08:56:02;74.50;;;35.35;;
5742;SDS011;2896;53.500;10.020;2022-12-18T08:58:29;71.55;;;28.30;;
5742;SDS011;2896;53.500;10.020;2022-12-18T09:00:59;51.95;;;26.20;;
5742;SDS011;2896;53.500;10.020;2022-12-18T09:03:27;47.92;;;22.92;;
5742;SDS011;2896;53.500;10.020;2022-12-18T09:05:54;37.40;;;21.95;;
5742;SDS011;2896;53.500;10.020;2022-12-18T09:08:20;42.53;;;21.65;;
5742;SDS011;2896;53.500;10.020;2022-12-18T09:10:48;44.90;;;22.30;;
5742;SDS011;2896;53.500;10.020;2022-12-18T09:13:16;48.15;;;23.25;;
5742;SDS011;2896;53.500;10.020;2022-12-18T09:15:43;43.85;;;22.60;;
5742;SDS011;2896;53.500;10.020;2022-12-18T09:18:12;41.45;;;22.55;;
5742;SDS011;2896;53.500;10.020;2022-12-18T09:20:40;37.42;;;20.48;;
5742;SDS011;2896;53.500;10.020;2022-12-18T09:23:07;44.20;;;21.88;;
5742;SDS011;2896;53.500;10.020;2022-12-18T09:25:34;44.50;;;22.70;;
5742;SDS011;2896;53.500;10.020;2022-12-18T09:28:02;49.20;;;21.90;;
5742;SDS011;2896;53.500;10.020;2022-12-18T09:30:29;38.33;;;19.27;;
5742;SDS011;2896;53.500;10.020;2022-12-18T09:32:58;42.30;;;19.55;;
5742;SDS011;2896;53.500;10.020;2022-12-18T09:35:24;37.55;;;20.15;;
5742;SDS011;2896;53.500;10.020;2022-12-18T09:37:54;55.78;;;19.48;;
5742;SDS011;2896;53.500;10.020;2022-12-18T09:40:21;35.72;;;19.38;;
5742;SDS011;2896;53.500;10.020;2022-12-18T09:42:51;42.65;;;20.73;;
5742;SDS011;2896;53.500;10.020;2022-12-18T09:45:21;43.67;;;20.50;;
5742;SDS011;2896;53.500;10.020;2022-12-18T09:47:49;43.85;;;20.45;;
5742;SDS011;2896;53.500;10.020;2022-12-18T09:50:20;37.00;;;20.60;;
5742;SDS011;2896;53.500;10.020;2022-12-18T09:52:51;38.30;;;19.65;;
5742;SDS011;2896;53.500;10.020;2022-12-18T09:55:24;34.47;;;19.75;;
5742;SDS011;2896;53.500;10.020;2022-12-18T09:57:55;35.20;;;20.05;;
5742;SDS011;2896;53.500;10.020;2022-12-18T10:00:25;40.17;;;20.77;;
5742;SDS011;2896;53.500;10.020;2022-12-18T10:02:52;38.40;;;19.52;;
5742;SDS011;2896;53.500;10.020;2022-12-18T10:05:27;34.00;;;19.03;;
5742;SDS011;2896;53.500;10.020;2022-12-18T10:08:04;34.77;;;19.87;;
5742;SDS011;2896;53.500;10.020;2022-12-18T10:10:38;36.78;;;17.92;;
5742;SDS011;2896;53.500;10.020;2022-12-18T10:13:11;38.17;;;19.20;;
5742;SDS011;2896;53.500;10.020;2022-12-18T10:15:50;38.40;;;19.80;;
5742;SDS011;2896;53.500;10.020;2022-12-18T10:18:26;39.20;;;20.57;;
5742;SDS011;2896;53.500;10.020;2022-12-18T10:21:03;35.43;;;19.90;;
5742;SDS011;2896;53.500;10.020;2022-12-18T10:23:37;35.53;;;19.13;;
5742;SDS011;2896;53.500;10.020;2022-12-18T10:26:11;35.80;;;18.37;;
5742;SDS011;2896;53.500;10.020;2022-12-18T10:28:38;37.77;;;20.00;;
5742;SDS011;2896;53.500;10.020;2022-12-18T10:31:06;34.50;;;19.13;;
5742;SDS011;2896;53.500;10.020;2022-12-18T10:33:33;34.40;;;18.40;;
5742;SDS011;2896;53.500;10.020;2022-12-18T10:36:00;33.90;;;18.87;;
5742;SDS011;2896;53.500;10.020;2022-12-18T10:38:28;36.23;;;19.47;;
5742;SDS011;2896;53.500;10.020;2022-12-18T10:40:58;33.80;;;19.40;;
5742;SDS011;2896;53.500;10.020;2022-12-18T10:43:27;36.67;;;18.67;;
5742;SDS011;2896;53.500;10.020;2022-12-18T10:46:12;34.53;;;18.60;;
5742;SDS011;2896;53.500;10.020;2022-12-18T10:48:47;34.53;;;18.73;;
5742;SDS011;2896;53.500;10.020;2022-12-18T10:51:22;38.50;;;19.87;;
5742;SDS011;2896;53.500;10.020;2022-12-18T10:53:51;32.60;;;17.77;;
5742;SDS011;2896;53.500;10.020;2022-12-18T10:56:22;30.10;;;18.30;;
5742;SDS011;2896;53.500;10.020;2022-12-18T10:58:55;33.37;;;17.60;;
5742;SDS011;2896;53.500;10.020;2022-12-18T11:01:27;27.50;;;17.33;;
5742;SDS011;2896;53.500;10.020;2022-12-18T11:03:59;27.03;;;16.23;;
5742;SDS011;2896;53.500;10.020;2022-12-18T11:06:27;32.50;;;16.27;;
5742;SDS011;2896;53.500;10.020;2022-12-18T11:08:57;28.93;;;16.90;;
5742;SDS011;2896;53.500;10.020;2022-12-18T11:11:27;26.20;;;16.13;;
5742;SDS011;2896;53.500;10.020;2022-12-18T11:13:57;38.37;;;17.90;;
5742;SDS011;2896;53.500;10.020;2022-12-18T11:16:26;26.40;;;15.30;;
5742;SDS011;2896;53.500;10.020;2022-12-18T11:19:13;27.23;;;16.23;;
5742;SDS011;2896;53.500;10.020;2022-12-18T11:21:49;41.47;;;17.33;;
5742;SDS011;2896;53.500;10.020;2022-12-18T11:24:20;26.90;;;16.37;;
5742;SDS011;2896;53.500;10.020;2022-12-18T11:26:53;34.03;;;18.83;;
5742;SDS011;2896;53.500;10.020;2022-12-18T11:29:22;34.17;;;17.30;;
5742;SDS011;2896;53.500;10.020;2022-12-18T11:31:57;38.57;;;18.27;;
5742;SDS011;2896;53.500;10.020;2022-12-18T11:34:49;32.90;;;18.00;;
5742;SDS011;2896;53.500;10.020;2022-12-18T11:37:22;38.30;;;17.07;;
5742;SDS011;2896;53.500;10.020;2022-12-18T11:39:49;30.10;;;16.83;;
5742;SDS011;2896;53.500;10.020;2022-12-18T11:42:22;31.43;;;18.37;;
5742;SDS011;2896;53.500;10.020;2022-12-18T11:44:54;30.83;;;17.93;;
5742;SDS011;2896;53.500;10.020;2022-12-18T11:47:25;30.93;;;18.07;;
5742;SDS011;2896;53.500;10.020;2022-12-18T11:49:59;32.30;;;17.67;;
5742;SDS011;2896;53.500;10.020;2022-12-18T11:52:28;36.63;;;18.13;;
5742;SDS011;2896;53.500;10.020;2022-12-18T11:55:00;34.30;;;17.47;;
5742;SDS011;2896;53.500;10.020;2022-12-18T11:57:36;34.47;;;18.00;;
5742;SDS011;2896;53.500;10.020;2022-12-18T12:00:11;25.93;;;16.50;;
5742;SDS011;2896;53.500;10.020;2022-12-18T12:02:47;34.97;;;19.00;;
5742;SDS011;2896;53.500;10.020;2022-12-18T12:05:39;26.83;;;17.40;;
5742;SDS011;2896;53.500;10.020;2022-12-18T12:08:14;33.03;;;18.23;;
5742;SDS011;2896;53.500;10.020;2022-12-18T12:10:51;32.67;;;18.50;;
5742;SDS011;2896;53.500;10.020;2022-12-18T12:13:30;34.70;;;17.57;;
5742;SDS011;2896;53.500;10.020;2022-12-18T12:16:08;36.87;;;19.70;;
5742;SDS011;2896;53.500;10.020;2022-12-18T12:18:44;33.60;;;17.43;;
5742;SDS011;2896;53.500;10.020;2022-12-18T12:21:21;35.70;;;19.13;;
5742;SDS011;2896;53.500;10.020;2022-12-18T12:23:56;35.43;;;17.63;;
5742;SDS011;2896;53.500;10.020;2022-12-18T12:26:30;35.30;;;18.90;;
5742;SDS011;2896;53.500;10.020;2022-12-18T12:29:10;32.43;;;18.23;;
5742;SDS011;2896;53.500;10.020;2022-12-18T12:31:53;33.60;;;19.20;;
5742;SDS011;2896;53.500;10.020;2022-12-18T12:34:29;40.40;;;19.20;;
5742;SDS011;2896;53.500;10.020;2022-12-18T12:37:04;34.17;;;17.83;;
5742;SDS011;2896;53.500;10.020;2022-12-18T12:39:40;32.87;;;18.20;;
5742;SDS011;2896;53.500;10.020;2022-12-18T12:42:11;38.87;;;21.00;;
5742;SDS011;2896;53.500;10.020;2022-12-18T12:45:00;36.93;;;21.17;;
5742;SDS011;2896;53.500;10.020;2022-12-18T12:47:32;34.40;;;19.10;;
5742;SDS011;2896;53.500;10.020;2022-12-18T12:50:03;37.90;;;18.90;;
5742;SDS011;2896;53.500;10.020;2022-12-18T12:52:33;35.40;;;19.10;;
5742;SDS011;2896;53.500;10.020;2022-12-18T12:55:04;34.20;;;17.47;;
5742;SDS011;2896;53.500;10.020;2022-12-18T12:57:39;39.67;;;19.37;;
5742;SDS011;2896;53.500;10.020;2022-12-18T13:00:13;36.67;;;18.33;;
5742;SDS011;2896;53.500;10.020;2022-12-18T13:02:43;34.73;;;18.57;;
5742;SDS011;2896;53.500;10.020;2022-12-18T13:05:17;36.40;;;18.50;;
5742;SDS011;2896;53.500;10.020;2022-12-18T13:07:49;37.87;;;18.10;;
5742;SDS011;2896;53.500;10.020;2022-12-18T13:10:23;41.93;;;19.40;;
5742;SDS011;2896;53.500;10.020;2022-12-18T13:12:55;35.63;;;17.70;;
5742;SDS011;2896;53.500;10.020;2022-12-18T13:15:24;34.00;;;18.40;;
5742;SDS011;2896;53.500;10.020;2022-12-18T13:18:09;35.40;;;19.80;;
5742;SDS011;2896;53.500;10.020;2022-12-18T13:20:42;40.33;;;18.80;;
5742;SDS011;2896;53.500;10.020;2022-12-18T13:23:23;39.30;;;19.57;;
5742;SDS011;2896;53.500;10.020;2022-12-18T13:25:57;38.13;;;17.80;;
5742;SDS011;2896;53.500;10.020;2022-12-18T13:28:48;39.30;;;19.50;;
5742;SDS011;2896;53.500;10.020;2022-12-18T13:34:19;38.97;;;19.53;;
5742;SDS011;2896;53.500;10.020;2022-12-18T13:36:47;40.47;;;19.37;;
5742;SDS011;2896;53.500;10.020;2022-12-18T13:39:21;39.77;;;20.47;;
5742;SDS011;2896;53.500;10.020;2022-12-18T13:48:04;44.23;;;19.73;;
5742;SDS011;2896;53.500;10.020;2022-12-18T13:50:41;43.53;;;19.40;;
5742;SDS011;2896;53.500;10.020;2022-12-18T13:53:11;45.10;;;21.13;;
5742;SDS011;2896;53.500;10.020;2022-12-18T13:55:45;40.00;;;18.50;;
5742;SDS011;2896;53.500;10.020;2022-12-18T13:58:12;33.50;;;18.00;;
5742;SDS011;2896;53.500;10.020;2022-12-18T14:00:41;37.47;;;18.83;;
5742;SDS011;2896;53.500;10.020;2022-12-18T14:03:15;38.90;;;19.47;;
5742;SDS011;2896;53.500;10.020;2022-12-18T14:05:46;44.13;;;18.40;;
5742;SDS011;2896;53.500;10.020;2022-12-18T14:08:20;38.67;;;19.50;;
5742;SDS011;2896;53.500;10.020;2022-12-18T14:10:51;39.70;;;20.63;;
5742;SDS011;2896;53.500;10.020;2022-12-18T14:13:19;40.70;;;18.20;;
5742;SDS011;2896;53.500;10.020;2022-12-18T14:15:49;51.00;;;21.23;;
5742;SDS011;2896;53.500;10.020;2022-12-18T14:18:19;44.30;;;20.10;;
5742;SDS011;2896;53.500;10.020;2022-12-18T14:20:50;37.70;;;19.10;;
5742;SDS011;2896;53.500;10.020;2022-12-18T14:23:25;42.33;;;19.67;;
5742;SDS011;2896;53.500;10.020;2022-12-18T14:25:55;42.13;;;18.90;;
5742;SDS011;2896;53.500;10.020;2022-12-18T14:28:22;41.47;;;18.73;;
5742;SDS011;2896;53.500;10.020;2022-12-18T14:30:49;43.00;;;20.00;;
5742;SDS011;2896;53.500;10.020;2022-12-18T14:33:16;53.27;;;21.00;;
5742;SDS011;2896;53.500;10.020;2022-12-18T14:35:53;48.87;;;22.50;;
5742;SDS011;2896;53.500;10.020;2022-12-18T14:38:26;50.97;;;20.43;;
5742;SDS011;2896;53.500;10.020;2022-12-18T14:40:55;43.47;;;20.73;;
5742;SDS011;2896;53.500;10.020;2022-12-18T14:43:26;50.30;;;20.57;;
5742;SDS011;2896;53.500;10.020;2022-12-18T14:45:54;58.63;;;23.07;;
5742;SDS011;2896;53.500;10.020;2022-12-18T14:48:22;54.30;;;22.07;;
5742;SDS011;2896;53.500;10.020;2022-12-18T14:51:01;46.60;;;21.53;;
5742;SDS011;2896;53.500;10.020;2022-12-18T14:53:34;55.00;;;23.83;;
5742;SDS011;2896;53.500;10.020;2022-12-18T14:56:03;51.87;;;22.10;;
5742;SDS011;2896;53.500;10.020;2022-12-18T14:58:44;50.53;;;21.27;;
5742;SDS011;2896;53.500;10.020;2022-12-18T15:01:17;54.53;;;21.97;;